createdAt,value
2019-02-17T00:00:15.927Z,1009.28
2019-02-17T00:01:15.904Z,1009.22
2019-02-17T00:02:15.892Z,1009.23
2019-02-17T00:03:15.901Z,1009.25
2019-02-17T00:04:15.874Z,1009.24
2019-02-17T00:05:15.884Z,1009.21
2019-02-17T00:06:15.873Z,1009.24
2019-02-17T00:07:15.839Z,1009.22
2019-02-17T00:08:15.883Z,1009.23
2019-02-17T00:09:15.838Z,1009.19
2019-02-17T00:10:16.375Z,1009.18
2019-02-17T00:11:15.834Z,1009.17
2019-02-17T00:12:15.846Z,1009.16
2019-02-17T00:13:15.782Z,1009.14
2019-02-17T00:14:15.833Z,1009.15
2019-02-17T00:15:15.796Z,1009.14
2019-02-17T00:16:15.995Z,1009.11
2019-02-17T00:17:15.901Z,1009.12
2019-02-17T00:18:15.828Z,1009.06
2019-02-17T00:19:15.987Z,1009.07
2019-02-17T00:20:15.749Z,1009.08
2019-02-17T00:21:15.689Z,1009.09
2019-02-17T00:22:15.685Z,1009.01
2019-02-17T00:23:15.846Z,1009.02
2019-02-17T00:24:15.658Z,1009.02
2019-02-17T00:25:15.814Z,1009.02
2019-02-17T00:26:15.865Z,1008.99
2019-02-17T00:27:15.872Z,1009.02
2019-02-17T00:28:15.669Z,1008.99
2019-02-17T00:29:15.604Z,1008.95
2019-02-17T00:30:16.233Z,1008.91
2019-02-17T00:31:15.667Z,1009.00
2019-02-17T00:32:15.643Z,1008.94
2019-02-17T00:33:15.564Z,1008.94
2019-02-17T00:34:15.569Z,1008.92
2019-02-17T00:35:15.543Z,1008.91
2019-02-17T00:36:15.532Z,1008.86
2019-02-17T00:37:15.518Z,1008.85
2019-02-17T00:38:15.511Z,1008.80
2019-02-17T00:39:15.491Z,1008.89
2019-02-17T00:40:15.509Z,1008.81
2019-02-17T00:41:15.475Z,1008.85
2019-02-17T00:42:15.470Z,1008.81
2019-02-17T00:43:15.482Z,1008.86
2019-02-17T00:44:15.480Z,1008.83
2019-02-17T00:45:15.429Z,1008.84
2019-02-17T00:46:15.442Z,1008.83
2019-02-17T00:47:15.492Z,1008.83
2019-02-17T00:48:15.401Z,1008.83
2019-02-17T00:49:15.388Z,1008.85
2019-02-17T00:50:15.403Z,1008.84
2019-02-17T00:51:15.360Z,1008.87
2019-02-17T00:52:15.370Z,1008.82
2019-02-17T00:53:15.388Z,1008.81
2019-02-17T00:54:15.330Z,1008.85
2019-02-17T00:55:15.324Z,1008.86
2019-02-17T00:56:15.338Z,1008.84
2019-02-17T00:57:15.302Z,1008.80
2019-02-17T00:58:15.365Z,1008.81
2019-02-17T00:59:15.283Z,1008.76
2019-02-17T01:00:15.273Z,1008.79
2019-02-17T01:01:15.319Z,1008.76
2019-02-17T01:02:15.296Z,1008.71
2019-02-17T01:03:15.234Z,1008.79
2019-02-17T01:04:15.268Z,1008.78
2019-02-17T01:05:15.215Z,1008.79
2019-02-17T01:06:15.244Z,1008.84
2019-02-17T01:07:15.220Z,1008.82
2019-02-17T01:08:15.293Z,1008.85
2019-02-17T01:09:15.194Z,1008.85
2019-02-17T01:10:15.241Z,1008.89
2019-02-17T01:11:15.164Z,1008.84
2019-02-17T01:12:15.139Z,1008.83
2019-02-17T01:13:15.129Z,1008.80
2019-02-17T01:14:15.141Z,1008.73
2019-02-17T01:15:15.284Z,1008.77
2019-02-17T01:16:15.094Z,1008.80
2019-02-17T01:17:15.084Z,1008.78
2019-02-17T01:18:15.093Z,1008.77
2019-02-17T01:19:15.067Z,1008.79
2019-02-17T01:20:15.059Z,1008.80
2019-02-17T01:21:15.069Z,1008.77
2019-02-17T01:22:15.037Z,1008.78
2019-02-17T01:23:15.016Z,1008.77
2019-02-17T01:24:15.008Z,1008.74
2019-02-17T01:25:15.002Z,1008.73
2019-02-17T01:26:14.983Z,1008.82
2019-02-17T01:27:15.007Z,1008.78
2019-02-17T01:28:15.014Z,1008.79
2019-02-17T01:29:20.562Z,1008.80
2019-02-17T01:30:15.941Z,1008.81
2019-02-17T01:31:14.976Z,1008.79
2019-02-17T01:32:14.922Z,1008.83
2019-02-17T01:33:14.920Z,1008.75
2019-02-17T01:34:14.902Z,1008.83
2019-02-17T01:35:14.942Z,1008.81
2019-02-17T01:36:14.905Z,1008.77
2019-02-17T01:37:14.946Z,1008.76
2019-02-17T01:38:14.893Z,1008.79
2019-02-17T01:39:14.997Z,1008.76
2019-02-17T01:40:14.836Z,1008.69
2019-02-17T01:41:14.824Z,1008.72
2019-02-17T01:42:14.833Z,1008.78
2019-02-17T01:43:14.798Z,1008.80
2019-02-17T01:44:14.813Z,1008.74
2019-02-17T01:45:14.782Z,1008.83
2019-02-17T01:46:14.776Z,1008.80
2019-02-17T01:47:14.784Z,1008.76
2019-02-17T01:48:14.745Z,1008.81
2019-02-17T01:49:14.744Z,1008.81
2019-02-17T01:50:14.722Z,1008.76
2019-02-17T01:51:14.717Z,1008.75
2019-02-17T01:52:14.704Z,1008.78
2019-02-17T01:53:14.718Z,1008.77
2019-02-17T01:54:14.717Z,1008.77
2019-02-17T01:55:14.704Z,1008.78
2019-02-17T01:56:14.659Z,1008.74
2019-02-17T01:57:14.647Z,1008.75
2019-02-17T01:58:14.634Z,1008.74
2019-02-17T01:59:14.656Z,1008.76
2019-02-17T02:00:14.617Z,1008.78
2019-02-17T02:01:16.995Z,1008.71
2019-02-17T02:02:14.590Z,1008.75
2019-02-17T02:03:14.591Z,1008.67
2019-02-17T02:04:14.573Z,1008.69
2019-02-17T02:05:14.612Z,1008.70
2019-02-17T02:06:14.553Z,1008.72
2019-02-17T02:07:14.544Z,1008.73
2019-02-17T02:08:14.560Z,1008.67
2019-02-17T02:09:14.566Z,1008.66
2019-02-17T02:10:14.504Z,1008.64
2019-02-17T02:11:14.500Z,1008.67
2019-02-17T02:12:14.486Z,1008.64
2019-02-17T02:13:14.537Z,1008.63
2019-02-17T02:14:14.498Z,1008.66
2019-02-17T02:15:14.491Z,1008.65
2019-02-17T02:16:14.491Z,1008.67
2019-02-17T02:17:14.431Z,1008.62
2019-02-17T02:18:14.493Z,1008.65
2019-02-17T02:19:14.405Z,1008.67
2019-02-17T02:20:14.524Z,1008.61
2019-02-17T02:21:14.386Z,1008.68
2019-02-17T02:22:14.459Z,1008.67
2019-02-17T02:23:14.386Z,1008.65
2019-02-17T02:24:14.474Z,1008.58
2019-02-17T02:25:14.391Z,1008.57
2019-02-17T02:26:14.336Z,1008.60
2019-02-17T02:27:14.318Z,1008.56
2019-02-17T02:28:14.334Z,1008.58
2019-02-17T02:29:14.297Z,1008.53
2019-02-17T02:30:14.287Z,1008.52
2019-02-17T02:31:14.289Z,1008.51
2019-02-17T02:32:14.595Z,1008.51
2019-02-17T02:33:14.289Z,1008.50
2019-02-17T02:34:14.250Z,1008.46
2019-02-17T02:35:14.238Z,1008.48
2019-02-17T02:36:14.224Z,1008.46
2019-02-17T02:37:14.215Z,1008.45
2019-02-17T02:38:14.208Z,1008.44
2019-02-17T02:39:14.210Z,1008.41
2019-02-17T02:40:14.189Z,1008.38
2019-02-17T02:41:14.214Z,1008.38
2019-02-17T02:42:14.157Z,1008.33
2019-02-17T02:43:14.175Z,1008.37
2019-02-17T02:44:14.142Z,1008.36
2019-02-17T02:45:14.127Z,1008.32
2019-02-17T02:46:14.121Z,1008.30
2019-02-17T02:47:14.101Z,1008.30
2019-02-17T02:48:14.113Z,1008.33
2019-02-17T02:49:14.084Z,1008.25
2019-02-17T02:50:14.076Z,1008.30
2019-02-17T02:51:14.070Z,1008.30
2019-02-17T02:52:14.050Z,1008.32
2019-02-17T02:53:14.083Z,1008.31
2019-02-17T02:54:14.027Z,1008.29
2019-02-17T02:55:14.024Z,1008.29
2019-02-17T02:56:14.009Z,1008.25
2019-02-17T02:57:14.205Z,1008.28
2019-02-17T02:58:13.989Z,1008.25
2019-02-17T02:59:14.028Z,1008.29
2019-02-17T03:00:13.963Z,1008.26
2019-02-17T03:01:14.040Z,1008.26
2019-02-17T03:02:13.984Z,1008.26
2019-02-17T03:03:13.934Z,1008.25
2019-02-17T03:04:13.920Z,1008.21
2019-02-17T03:05:13.907Z,1008.23
2019-02-17T03:06:13.904Z,1008.19
2019-02-17T03:07:13.899Z,1008.21
2019-02-17T03:08:13.904Z,1008.21
2019-02-17T03:09:13.871Z,1008.13
2019-02-17T03:10:13.894Z,1008.15
2019-02-17T03:11:13.845Z,1008.10
2019-02-17T03:12:13.833Z,1008.11
2019-02-17T03:13:13.829Z,1008.09
2019-02-17T03:14:13.833Z,1008.10
2019-02-17T03:15:13.803Z,1008.11
2019-02-17T03:16:13.794Z,1008.10
2019-02-17T03:17:13.788Z,1008.08
2019-02-17T03:18:13.783Z,1008.04
2019-02-17T03:19:13.789Z,1008.08
2019-02-17T03:20:13.749Z,1008.05
2019-02-17T03:21:13.747Z,1008.07
2019-02-17T03:22:13.723Z,1008.08
2019-02-17T03:23:13.714Z,1008.03
2019-02-17T03:24:13.720Z,1008.03
2019-02-17T03:25:13.712Z,1008.06
2019-02-17T03:26:13.688Z,1008.03
2019-02-17T03:27:13.673Z,1008.03
2019-02-17T03:28:13.669Z,1008.04
2019-02-17T03:29:13.672Z,1008.03
2019-02-17T03:30:13.643Z,1008.07
2019-02-17T03:31:13.664Z,1008.08
2019-02-17T03:32:13.618Z,1008.07
2019-02-17T03:33:13.640Z,1008.07
2019-02-17T03:34:13.618Z,1008.08
2019-02-17T03:35:13.587Z,1008.11
2019-02-17T03:36:13.580Z,1008.13
2019-02-17T03:37:13.569Z,1008.13
2019-02-17T03:38:13.557Z,1008.11
2019-02-17T03:39:13.581Z,1008.09
2019-02-17T03:40:13.560Z,1008.09
2019-02-17T03:41:13.527Z,1008.13
2019-02-17T03:42:13.539Z,1008.09
2019-02-17T03:43:13.497Z,1008.08
2019-02-17T03:44:13.610Z,1008.05
2019-02-17T03:45:13.508Z,1008.06
2019-02-17T03:46:13.582Z,1008.02
2019-02-17T03:47:13.490Z,1008.10
2019-02-17T03:48:13.462Z,1008.09
2019-02-17T03:49:13.440Z,1008.05
2019-02-17T03:50:13.428Z,1008.07
2019-02-17T03:51:13.412Z,1008.05
2019-02-17T03:52:13.407Z,1008.03
2019-02-17T03:53:13.419Z,1008.04
2019-02-17T03:54:13.378Z,1008.07
2019-02-17T03:55:13.369Z,1008.04
2019-02-17T03:56:13.394Z,1008.05
2019-02-17T03:57:13.353Z,1008.02
2019-02-17T03:58:13.341Z,1007.99
2019-02-17T03:59:13.344Z,1007.98
2019-02-17T04:00:17.108Z,1008.03
2019-02-17T04:01:13.326Z,1007.99
2019-02-17T04:02:13.290Z,1008.00
2019-02-17T04:03:13.282Z,1007.98
2019-02-17T04:04:13.274Z,1007.98
2019-02-17T04:05:13.260Z,1008.00
2019-02-17T04:06:13.289Z,1007.95
2019-02-17T04:07:13.273Z,1007.95
2019-02-17T04:08:13.245Z,1007.97
2019-02-17T04:09:13.215Z,1007.96
2019-02-17T04:10:13.214Z,1007.98
2019-02-17T04:11:13.199Z,1007.93
2019-02-17T04:12:13.212Z,1007.91
2019-02-17T04:13:13.189Z,1007.94
2019-02-17T04:14:13.162Z,1007.92
2019-02-17T04:15:13.158Z,1007.95
2019-02-17T04:16:13.143Z,1007.93
2019-02-17T04:17:13.184Z,1007.93
2019-02-17T04:18:13.204Z,1007.89
2019-02-17T04:19:13.112Z,1007.89
2019-02-17T04:20:13.100Z,1007.86
2019-02-17T04:21:13.090Z,1007.89
2019-02-17T04:22:13.093Z,1007.87
2019-02-17T04:23:13.078Z,1007.83
2019-02-17T04:24:13.056Z,1007.81
2019-02-17T04:25:13.092Z,1007.81
2019-02-17T04:26:13.032Z,1007.79
2019-02-17T04:27:13.023Z,1007.82
2019-02-17T04:28:13.015Z,1007.78
2019-02-17T04:29:13.044Z,1007.80
2019-02-17T04:30:13.018Z,1007.72
2019-02-17T04:31:13.043Z,1007.76
2019-02-17T04:32:12.969Z,1007.72
2019-02-17T04:33:13.074Z,1007.78
2019-02-17T04:34:12.973Z,1007.72
2019-02-17T04:35:12.934Z,1007.76
2019-02-17T04:36:12.943Z,1007.71
2019-02-17T04:37:12.909Z,1007.68
2019-02-17T04:38:12.910Z,1007.70
2019-02-17T04:39:12.893Z,1007.72
2019-02-17T04:40:12.879Z,1007.69
2019-02-17T04:41:12.884Z,1007.68
2019-02-17T04:42:12.862Z,1007.70
2019-02-17T04:43:12.848Z,1007.67
2019-02-17T04:44:12.844Z,1007.68
2019-02-17T04:45:12.833Z,1007.66
2019-02-17T04:46:12.831Z,1007.68
2019-02-17T04:47:12.804Z,1007.67
2019-02-17T04:48:12.793Z,1007.66
2019-02-17T04:49:12.778Z,1007.66
2019-02-17T04:50:12.775Z,1007.65
2019-02-17T04:51:12.794Z,1007.71
2019-02-17T04:52:12.773Z,1007.66
2019-02-17T04:53:12.742Z,1007.70
2019-02-17T04:54:12.759Z,1007.66
2019-02-17T04:55:12.716Z,1007.69
2019-02-17T04:56:12.707Z,1007.72
2019-02-17T04:57:12.699Z,1007.68
2019-02-17T04:58:12.706Z,1007.68
2019-02-17T04:59:12.676Z,1007.66
2019-02-17T05:00:12.668Z,1007.66
2019-02-17T05:01:12.648Z,1007.70
2019-02-17T05:02:12.652Z,1007.71
2019-02-17T05:03:12.643Z,1007.66
2019-02-17T05:04:12.639Z,1007.65
2019-02-17T05:05:12.624Z,1007.66
2019-02-17T05:06:12.623Z,1007.65
2019-02-17T05:07:12.588Z,1007.65
2019-02-17T05:08:12.632Z,1007.67
2019-02-17T05:09:12.583Z,1007.69
2019-02-17T05:10:12.650Z,1007.66
2019-02-17T05:11:12.555Z,1007.63
2019-02-17T05:12:12.592Z,1007.67
2019-02-17T05:13:12.530Z,1007.65
2019-02-17T05:14:12.517Z,1007.71
2019-02-17T05:15:12.504Z,1007.67
2019-02-17T05:16:12.495Z,1007.68
2019-02-17T05:17:12.485Z,1007.66
2019-02-17T05:18:12.490Z,1007.70
2019-02-17T05:19:12.456Z,1007.67
2019-02-17T05:20:12.473Z,1007.65
2019-02-17T05:21:12.473Z,1007.66
2019-02-17T05:22:12.499Z,1007.69
2019-02-17T05:23:12.425Z,1007.71
2019-02-17T05:24:12.408Z,1007.68
2019-02-17T05:25:12.420Z,1007.70
2019-02-17T05:26:12.397Z,1007.67
2019-02-17T05:27:12.370Z,1007.70
2019-02-17T05:28:12.373Z,1007.68
2019-02-17T05:29:12.395Z,1007.62
2019-02-17T05:30:12.351Z,1007.59
2019-02-17T05:31:12.333Z,1007.61
2019-02-17T05:32:12.338Z,1007.58
2019-02-17T05:33:12.302Z,1007.55
2019-02-17T05:34:12.323Z,1007.58
2019-02-17T05:35:12.294Z,1007.60
2019-02-17T05:36:12.275Z,1007.60
2019-02-17T05:37:12.269Z,1007.55
2019-02-17T05:38:12.249Z,1007.55
2019-02-17T05:39:12.241Z,1007.52
2019-02-17T05:40:12.249Z,1007.50
2019-02-17T05:41:12.217Z,1007.50
2019-02-17T05:42:12.213Z,1007.46
2019-02-17T05:43:12.199Z,1007.47
2019-02-17T05:44:12.204Z,1007.47
2019-02-17T05:45:12.180Z,1007.47
2019-02-17T05:46:12.173Z,1007.47
2019-02-17T05:47:12.158Z,1007.41
2019-02-17T05:48:12.176Z,1007.38
2019-02-17T05:49:12.161Z,1007.39
2019-02-17T05:50:12.120Z,1007.34
2019-02-17T05:51:12.109Z,1007.35
2019-02-17T05:52:12.099Z,1007.35
2019-02-17T05:53:12.089Z,1007.32
2019-02-17T05:54:12.111Z,1007.35
2019-02-17T05:55:12.068Z,1007.29
2019-02-17T05:56:12.092Z,1007.25
2019-02-17T05:57:12.048Z,1007.27
2019-02-17T05:58:12.030Z,1007.24
2019-02-17T05:59:12.032Z,1007.29
2019-02-17T06:00:12.034Z,1007.28
2019-02-17T06:01:12.049Z,1007.30
2019-02-17T06:02:11.987Z,1007.37
2019-02-17T06:03:11.981Z,1007.32
2019-02-17T06:04:11.970Z,1007.34
2019-02-17T06:05:12.018Z,1007.33
2019-02-17T06:06:11.950Z,1007.41
2019-02-17T06:07:11.994Z,1007.41
2019-02-17T06:08:11.929Z,1007.41
2019-02-17T06:09:11.924Z,1007.42
2019-02-17T06:10:11.902Z,1007.41
2019-02-17T06:11:11.910Z,1007.46
2019-02-17T06:12:11.878Z,1007.44
2019-02-17T06:13:11.892Z,1007.41
2019-02-17T06:14:11.896Z,1007.39
2019-02-17T06:15:11.870Z,1007.37
2019-02-17T06:16:11.839Z,1007.39
2019-02-17T06:17:11.892Z,1007.39
2019-02-17T06:18:11.825Z,1007.39
2019-02-17T06:19:11.832Z,1007.40
2019-02-17T06:20:11.856Z,1007.40
2019-02-17T06:21:11.860Z,1007.42
2019-02-17T06:22:11.889Z,1007.42
2019-02-17T06:23:11.848Z,1007.43
2019-02-17T06:24:11.886Z,1007.43
2019-02-17T06:25:11.769Z,1007.47
2019-02-17T06:26:11.770Z,1007.46
2019-02-17T06:27:11.779Z,1007.49
2019-02-17T06:28:11.742Z,1007.47
2019-02-17T06:29:11.736Z,1007.47
2019-02-17T06:30:11.722Z,1007.42
2019-02-17T06:31:14.397Z,1007.44
2019-02-17T06:32:11.722Z,1007.45
2019-02-17T06:33:11.722Z,1007.41
2019-02-17T06:34:11.645Z,1007.38
2019-02-17T06:35:11.897Z,1007.38
2019-02-17T06:36:11.877Z,1007.45
2019-02-17T06:37:11.611Z,1007.38
2019-02-17T06:38:11.628Z,1007.37
2019-02-17T06:39:11.608Z,1007.33
2019-02-17T06:40:11.820Z,1007.35
2019-02-17T06:41:11.568Z,1007.36
2019-02-17T06:42:11.561Z,1007.32
2019-02-17T06:43:11.899Z,1007.30
2019-02-17T06:44:11.605Z,1007.29
2019-02-17T06:45:11.520Z,1007.27
2019-02-17T06:46:11.515Z,1007.30
2019-02-17T06:47:12.878Z,1007.27
2019-02-17T06:48:11.492Z,1007.27
2019-02-17T06:49:11.527Z,1007.24
2019-02-17T06:50:11.504Z,1007.29
2019-02-17T06:51:11.956Z,1007.22
2019-02-17T06:52:11.462Z,1007.18
2019-02-17T06:53:11.440Z,1007.17
2019-02-17T06:54:12.011Z,1007.15
2019-02-17T06:55:11.598Z,1007.19
2019-02-17T06:56:11.425Z,1007.12
2019-02-17T06:57:11.856Z,1007.19
2019-02-17T06:58:11.773Z,1007.18
2019-02-17T06:59:11.460Z,1007.16
2019-02-17T07:00:11.584Z,1007.13
2019-02-17T07:01:11.370Z,1007.08
2019-02-17T07:02:11.359Z,1007.12
2019-02-17T07:03:11.325Z,1007.15
2019-02-17T07:04:11.588Z,1007.15
2019-02-17T07:05:11.735Z,1007.13
2019-02-17T07:06:11.296Z,1007.18
2019-02-17T07:07:11.520Z,1007.15
2019-02-17T07:08:11.303Z,1007.18
2019-02-17T07:09:11.537Z,1007.19
2019-02-17T07:10:11.301Z,1007.18
2019-02-17T07:11:11.283Z,1007.23
2019-02-17T07:12:11.283Z,1007.25
2019-02-17T07:13:11.262Z,1007.18
2019-02-17T07:14:11.391Z,1007.22
2019-02-17T07:15:11.272Z,1007.22
2019-02-17T07:16:11.211Z,1007.18
2019-02-17T07:17:11.337Z,1007.22
2019-02-17T07:18:11.171Z,1007.19
2019-02-17T07:19:11.221Z,1007.12
2019-02-17T07:20:11.152Z,1007.17
2019-02-17T07:21:11.165Z,1007.16
2019-02-17T07:22:11.192Z,1007.16
2019-02-17T07:23:11.115Z,1007.19
2019-02-17T07:24:11.185Z,1007.19
2019-02-17T07:25:11.116Z,1007.10
2019-02-17T07:26:11.521Z,1007.09
2019-02-17T07:27:11.075Z,1007.13
2019-02-17T07:28:11.322Z,1007.13
2019-02-17T07:29:11.052Z,1007.13
2019-02-17T07:30:11.118Z,1007.12
2019-02-17T07:31:11.129Z,1007.18
2019-02-17T07:32:11.125Z,1007.17
2019-02-17T07:33:11.202Z,1007.14
2019-02-17T07:34:11.579Z,1007.18
2019-02-17T07:35:11.160Z,1007.13
2019-02-17T07:36:10.984Z,1007.10
2019-02-17T07:37:11.161Z,1007.14
2019-02-17T07:38:10.956Z,1007.14
2019-02-17T07:39:10.946Z,1007.11
2019-02-17T07:40:11.013Z,1007.11
2019-02-17T07:41:11.122Z,1007.08
2019-02-17T07:42:10.964Z,1007.07
2019-02-17T07:43:11.014Z,1007.06
2019-02-17T07:44:10.908Z,1007.10
2019-02-17T07:45:10.953Z,1007.04
2019-02-17T07:46:10.869Z,1007.09
2019-02-17T07:47:10.897Z,1007.02
2019-02-17T07:48:11.075Z,1006.99
2019-02-17T07:49:10.853Z,1007.02
2019-02-17T07:50:10.828Z,1006.99
2019-02-17T07:51:10.817Z,1007.02
2019-02-17T07:52:10.799Z,1007.06
2019-02-17T07:53:10.817Z,1007.06
2019-02-17T07:54:10.882Z,1007.07
2019-02-17T07:55:10.795Z,1007.06
2019-02-17T07:56:11.006Z,1007.09
2019-02-17T07:57:11.361Z,1007.04
2019-02-17T07:58:10.768Z,1007.04
2019-02-17T07:59:10.818Z,1007.13
2019-02-17T08:00:10.710Z,1007.13
2019-02-17T08:01:10.769Z,1007.09
2019-02-17T08:02:10.696Z,1007.07
2019-02-17T08:03:10.717Z,1007.07
2019-02-17T08:04:10.712Z,1007.04
2019-02-17T08:05:10.675Z,1007.07
2019-02-17T08:06:10.646Z,1007.14
2019-02-17T08:07:10.673Z,1007.10
2019-02-17T08:08:10.626Z,1007.12
2019-02-17T08:09:10.660Z,1007.04
2019-02-17T08:10:10.659Z,1007.10
2019-02-17T08:11:10.595Z,1007.10
2019-02-17T08:12:10.649Z,1007.10
2019-02-17T08:13:10.593Z,1007.12
2019-02-17T08:14:10.737Z,1007.07
2019-02-17T08:15:10.645Z,1007.12
2019-02-17T08:16:10.575Z,1007.08
2019-02-17T08:17:10.537Z,1007.08
2019-02-17T08:18:10.987Z,1007.07
2019-02-17T08:19:10.501Z,1007.13
2019-02-17T08:20:10.515Z,1007.08
2019-02-17T08:21:11.394Z,1007.07
2019-02-17T08:22:10.476Z,1007.06
2019-02-17T08:23:10.471Z,1007.06
2019-02-17T08:24:10.501Z,1007.04
2019-02-17T08:25:20.979Z,1007.03
2019-02-17T08:26:11.585Z,1007.06
2019-02-17T08:27:10.469Z,1007.02
2019-02-17T08:28:10.610Z,1007.03
2019-02-17T08:29:10.647Z,1007.03
2019-02-17T08:30:10.401Z,1006.97
2019-02-17T08:31:10.497Z,1006.98
2019-02-17T08:32:10.397Z,1006.95
2019-02-17T08:33:10.512Z,1006.88
2019-02-17T08:34:10.347Z,1006.93
2019-02-17T08:35:10.382Z,1006.94
2019-02-17T08:36:10.639Z,1006.92
2019-02-17T08:37:10.314Z,1006.91
2019-02-17T08:38:10.294Z,1006.92
2019-02-17T08:39:10.281Z,1006.96
2019-02-17T08:40:12.168Z,1006.85
2019-02-17T08:41:10.282Z,1006.84
2019-02-17T08:42:10.321Z,1006.84
2019-02-17T08:43:10.243Z,1006.86
2019-02-17T08:44:10.476Z,1006.85
2019-02-17T08:45:10.230Z,1006.86
2019-02-17T08:46:10.242Z,1006.89
2019-02-17T08:47:10.208Z,1006.84
2019-02-17T08:48:10.296Z,1006.88
2019-02-17T08:49:10.274Z,1006.82
2019-02-17T08:50:10.257Z,1006.83
2019-02-17T08:51:10.715Z,1006.90
2019-02-17T08:52:10.140Z,1006.78
2019-02-17T08:53:10.497Z,1006.78
2019-02-17T08:54:10.145Z,1006.79
2019-02-17T08:55:10.132Z,1006.75
2019-02-17T08:56:10.190Z,1006.70
2019-02-17T08:57:10.089Z,1006.80
2019-02-17T08:58:10.102Z,1006.75
2019-02-17T08:59:10.091Z,1006.79
2019-02-17T09:00:10.480Z,1006.74
2019-02-17T09:01:10.065Z,1006.73
2019-02-17T09:02:10.126Z,1006.70
2019-02-17T09:03:10.285Z,1006.69
2019-02-17T09:04:10.013Z,1006.66
2019-02-17T09:05:10.048Z,1006.71
2019-02-17T09:06:10.087Z,1006.67
2019-02-17T09:07:10.043Z,1006.67
2019-02-17T09:08:10.425Z,1006.74
2019-02-17T09:09:10.089Z,1006.73
2019-02-17T09:10:09.986Z,1006.69
2019-02-17T09:11:09.980Z,1006.68
2019-02-17T09:12:09.948Z,1006.65
2019-02-17T09:13:09.957Z,1006.71
2019-02-17T09:14:09.908Z,1006.72
2019-02-17T09:15:09.969Z,1006.71
2019-02-17T09:16:09.963Z,1006.79
2019-02-17T09:17:10.168Z,1006.74
2019-02-17T09:18:09.866Z,1006.73
2019-02-17T09:19:09.880Z,1006.70
2019-02-17T09:20:09.882Z,1006.69
2019-02-17T09:21:09.827Z,1006.72
2019-02-17T09:22:10.228Z,1006.71
2019-02-17T09:23:09.824Z,1006.74
2019-02-17T09:24:09.790Z,1006.74
2019-02-17T09:25:09.790Z,1006.72
2019-02-17T09:26:09.773Z,1006.74
2019-02-17T09:27:10.506Z,1006.74
2019-02-17T09:28:09.773Z,1006.71
2019-02-17T09:29:09.772Z,1006.72
2019-02-17T09:30:09.731Z,1006.71
2019-02-17T09:31:09.720Z,1006.68
2019-02-17T09:32:16.348Z,1006.70
2019-02-17T09:33:10.751Z,1006.65
2019-02-17T09:34:09.682Z,1006.70
2019-02-17T09:35:09.669Z,1006.65
2019-02-17T09:36:09.659Z,1006.63
2019-02-17T09:37:09.659Z,1006.63
2019-02-17T09:38:09.660Z,1006.62
2019-02-17T09:39:09.638Z,1006.66
2019-02-17T09:40:09.623Z,1006.62
2019-02-17T09:41:09.627Z,1006.62
2019-02-17T09:42:09.598Z,1006.61
2019-02-17T09:43:09.608Z,1006.59
2019-02-17T09:44:09.577Z,1006.63
2019-02-17T09:45:09.566Z,1006.60
2019-02-17T09:46:09.552Z,1006.56
2019-02-17T09:47:09.544Z,1006.58
2019-02-17T09:48:09.528Z,1006.59
2019-02-17T09:49:09.537Z,1006.61
2019-02-17T09:50:09.510Z,1006.55
2019-02-17T09:51:09.506Z,1006.61
2019-02-17T09:52:09.523Z,1006.64
2019-02-17T09:53:09.477Z,1006.57
2019-02-17T09:54:09.480Z,1006.54
2019-02-17T09:55:09.451Z,1006.59
2019-02-17T09:56:09.438Z,1006.53
2019-02-17T09:57:09.435Z,1006.50
2019-02-17T09:58:09.469Z,1006.51
2019-02-17T09:59:09.522Z,1006.53
2019-02-17T10:00:09.397Z,1006.56
2019-02-17T10:01:09.419Z,1006.57
2019-02-17T10:02:09.377Z,1006.50
2019-02-17T10:03:09.367Z,1006.48
2019-02-17T10:04:09.388Z,1006.50
2019-02-17T10:05:09.408Z,1006.51
2019-02-17T10:06:09.332Z,1006.47
2019-02-17T10:07:09.415Z,1006.50
2019-02-17T10:08:09.309Z,1006.48
2019-02-17T10:09:09.385Z,1006.49
2019-02-17T10:10:09.328Z,1006.50
2019-02-17T10:11:09.283Z,1006.48
2019-02-17T10:12:09.272Z,1006.40
2019-02-17T10:13:09.265Z,1006.45
2019-02-17T10:14:09.241Z,1006.40
2019-02-17T10:15:10.515Z,1006.41
2019-02-17T10:16:09.228Z,1006.44
2019-02-17T10:17:09.213Z,1006.38
2019-02-17T10:18:09.223Z,1006.38
2019-02-17T10:19:09.206Z,1006.38
2019-02-17T10:20:09.248Z,1006.34
2019-02-17T10:21:09.169Z,1006.32
2019-02-17T10:22:09.159Z,1006.36
2019-02-17T10:23:09.171Z,1006.37
2019-02-17T10:24:09.130Z,1006.49
2019-02-17T10:25:09.122Z,1006.42
2019-02-17T10:26:09.135Z,1006.36
2019-02-17T10:27:09.113Z,1006.36
2019-02-17T10:28:09.140Z,1006.37
2019-02-17T10:29:09.132Z,1006.46
2019-02-17T10:30:09.071Z,1006.40
2019-02-17T10:31:09.068Z,1006.45
2019-02-17T10:32:09.083Z,1006.43
2019-02-17T10:33:09.036Z,1006.39
2019-02-17T10:34:09.051Z,1006.44
2019-02-17T10:35:09.012Z,1006.39
2019-02-17T10:36:09.034Z,1006.40
2019-02-17T10:37:08.995Z,1006.36
2019-02-17T10:38:08.993Z,1006.35
2019-02-17T10:39:08.991Z,1006.33
2019-02-17T10:40:09.042Z,1006.34
2019-02-17T10:41:08.977Z,1006.35
2019-02-17T10:42:08.956Z,1006.37
2019-02-17T10:43:08.924Z,1006.39
2019-02-17T10:44:08.976Z,1006.35
2019-02-17T10:45:08.905Z,1006.31
2019-02-17T10:46:08.898Z,1006.37
2019-02-17T10:47:08.915Z,1006.38
2019-02-17T10:48:08.872Z,1006.33
2019-02-17T10:49:08.878Z,1006.39
2019-02-17T10:50:08.857Z,1006.39
2019-02-17T10:51:08.876Z,1006.40
2019-02-17T10:52:08.831Z,1006.38
2019-02-17T10:53:08.951Z,1006.37
2019-02-17T10:54:08.815Z,1006.39
2019-02-17T10:55:08.794Z,1006.37
2019-02-17T10:56:08.842Z,1006.37
2019-02-17T10:57:08.839Z,1006.27
2019-02-17T10:58:08.787Z,1006.27
2019-02-17T10:59:08.755Z,1006.33
2019-02-17T11:00:08.744Z,1006.33
2019-02-17T11:01:08.732Z,1006.35
2019-02-17T11:02:08.749Z,1006.34
2019-02-17T11:03:08.727Z,1006.31
2019-02-17T11:04:08.703Z,1006.31
2019-02-17T11:05:08.692Z,1006.30
2019-02-17T11:06:08.676Z,1006.22
2019-02-17T11:07:08.663Z,1006.19
2019-02-17T11:08:08.650Z,1006.19
2019-02-17T11:09:08.660Z,1006.21
2019-02-17T11:10:08.633Z,1006.16
2019-02-17T11:11:08.623Z,1006.18
2019-02-17T11:12:08.614Z,1006.20
2019-02-17T11:13:08.616Z,1006.18
2019-02-17T11:14:08.608Z,1006.23
2019-02-17T11:15:08.587Z,1006.18
2019-02-17T11:16:08.566Z,1006.14
2019-02-17T11:17:08.554Z,1006.20
2019-02-17T11:18:08.543Z,1006.13
2019-02-17T11:19:08.535Z,1006.12
2019-02-17T11:20:08.541Z,1006.09
2019-02-17T11:21:08.509Z,1006.01
2019-02-17T11:22:08.532Z,1006.14
2019-02-17T11:23:08.490Z,1006.10
2019-02-17T11:24:08.514Z,1006.10
2019-02-17T11:25:08.501Z,1006.00
2019-02-17T11:26:08.452Z,1005.93
2019-02-17T11:27:08.438Z,1005.97
2019-02-17T11:28:08.440Z,1005.96
2019-02-17T11:29:08.421Z,1006.00
2019-02-17T11:30:08.427Z,1005.99
2019-02-17T11:31:08.400Z,1005.95
2019-02-17T11:32:08.423Z,1005.90
2019-02-17T11:33:08.376Z,1005.97
2019-02-17T11:34:08.380Z,1005.93
2019-02-17T11:35:08.350Z,1005.92
2019-02-17T11:36:08.356Z,1005.90
2019-02-17T11:37:08.333Z,1005.86
2019-02-17T11:38:08.368Z,1005.85
2019-02-17T11:39:08.305Z,1005.93
2019-02-17T11:40:08.352Z,1005.91
2019-02-17T11:41:08.309Z,1005.91
2019-02-17T11:42:08.299Z,1005.90
2019-02-17T11:43:08.386Z,1005.87
2019-02-17T11:44:08.260Z,1005.80
2019-02-17T11:45:08.263Z,1005.80
2019-02-17T11:46:08.240Z,1005.77
2019-02-17T11:47:08.221Z,1005.85
2019-02-17T11:48:08.208Z,1005.84
2019-02-17T11:49:08.200Z,1005.84
2019-02-17T11:50:08.219Z,1005.79
2019-02-17T11:51:08.182Z,1005.81
2019-02-17T11:52:08.172Z,1005.83
2019-02-17T11:53:08.178Z,1005.85
2019-02-17T11:54:08.147Z,1005.80
2019-02-17T11:55:08.138Z,1005.81
2019-02-17T11:56:08.157Z,1005.75
2019-02-17T11:57:08.114Z,1005.76
2019-02-17T11:58:08.101Z,1005.75
2019-02-17T11:59:08.092Z,1005.74
2019-02-17T12:00:08.078Z,1005.69
2019-02-17T12:01:08.087Z,1005.70
2019-02-17T12:02:08.060Z,1005.73
2019-02-17T12:03:08.517Z,1005.69
2019-02-17T12:04:08.061Z,1005.69
2019-02-17T12:05:08.029Z,1005.70